sensor_id;sensor_type;location;lat;lon;timestamp;temperature;humidity
72919;SHT30;61063;55.700;26.994;2023-03-01T07:06:29;2.4;79.7
72919;SHT30;61063;55.700;26.994;2023-03-01T07:12:07;2.2;76
72919;SHT30;61063;55.700;26.994;2023-03-01T07:16:55;2.2;75.3
72919;SHT30;61063;55.700;26.994;2023-03-01T07:21:43;2.2;75.2
72919;SHT30;61063;55.700;26.994;2023-03-01T07:26:17;2.4;75.2
72919;SHT30;61063;55.700;26.994;2023-03-01T07:31:43;2.6;74.3
72919;SHT30;61063;55.700;26.994;2023-03-01T07:37:09;2.7;74.2
72919;SHT30;61063;55.700;26.994;2023-03-01T07:41:55;3;73
72919;SHT30;61063;55.700;26.994;2023-03-01T07:46:17;2.7;73
72919;SHT30;61063;55.700;26.994;2023-03-01T07:51:29;2.6;73.3
72919;SHT30;61063;55.700;26.994;2023-03-01T07:56:17;2.7;73.5
72919;SHT30;61063;55.700;26.994;2023-03-01T08:02:07;3.2;71.4
72919;SHT30;61063;55.700;26.994;2023-03-01T08:06:51;3.5;70.5
72919;SHT30;61063;55.700;26.994;2023-03-01T08:11:29;3.4;69.7
72919;SHT30;61063;55.700;26.994;2023-03-01T08:16:17;3.2;69.7
72919;SHT30;61063;55.700;26.994;2023-03-01T08:21:18;3.4;69.8
72919;SHT30;61063;55.700;26.994;2023-03-01T08:27:05;3.9;68.3
72919;SHT30;61063;55.700;26.994;2023-03-01T08:31:55;4;67.2
72919;SHT30;61063;55.700;26.994;2023-03-01T08:36:30;3.7;67.2
72919;SHT30;61063;55.700;26.994;2023-03-01T08:41:29;3.8;67
72919;SHT30;61063;55.700;26.994;2023-03-01T08:46:43;3.9;67.2
72919;SHT30;61063;55.700;26.994;2023-03-01T08:52:07;4.2;66.1
72919;SHT30;61063;55.700;26.994;2023-03-01T08:56:51;4.2;65.5
72919;SHT30;61063;55.700;26.994;2023-03-01T09:01:41;4.2;64.6
72919;SHT30;61063;55.700;26.994;2023-03-01T09:06:30;4.2;64
72919;SHT30;61063;55.700;26.994;2023-03-01T09:11:41;4.3;64.2
72919;SHT30;61063;55.700;26.994;2023-03-01T09:17:07;4.5;64.2
72919;SHT30;61063;55.700;26.994;2023-03-01T09:22:07;4.3;63.3
72919;SHT30;61063;55.700;26.994;2023-03-01T09:26:45;4.4;62.2
72919;SHT30;61063;55.700;26.994;2023-03-01T09:31:18;4.9;62.6
72919;SHT30;61063;55.700;26.994;2023-03-01T09:37:05;4.9;59.5
72919;SHT30;61063;55.700;26.994;2023-03-01T09:42:10;4.5;59.9
72919;SHT30;61063;55.700;26.994;2023-03-01T09:46:17;4.7;59.2
72919;SHT30;61063;55.700;26.994;2023-03-01T09:51:57;4.3;56.3
72919;SHT30;61063;55.700;26.994;2023-03-01T09:56:44;4.2;55.6
72919;SHT30;61063;55.700;26.994;2023-03-01T10:02:11;4.5;56.1
72919;SHT30;61063;55.700;26.994;2023-03-01T10:06:54;4.6;56
72919;SHT30;61063;55.700;26.994;2023-03-01T10:11:36;4.7;55.1
72919;SHT30;61063;55.700;26.994;2023-03-01T10:16:57;5;55.4
72919;SHT30;61063;55.700;26.994;2023-03-01T10:21:18;5.1;52.7
72919;SHT30;61063;55.700;26.994;2023-03-01T10:27:06;4.9;52.2
72919;SHT30;61063;55.700;26.994;2023-03-01T10:31:55;4.8;52.1
72919;SHT30;61063;55.700;26.994;2023-03-01T10:36:38;4.8;52.3
72919;SHT30;61063;55.700;26.994;2023-03-01T10:41:58;4.9;51
72919;SHT30;61063;55.700;26.994;2023-03-01T10:46:25;5.3;51.2
72919;SHT30;61063;55.700;26.994;2023-03-01T10:52:11;5.4;50.1
72919;SHT30;61063;55.700;26.994;2023-03-01T10:56:56;5.4;47.8
72919;SHT30;61063;55.700;26.994;2023-03-01T11:01:35;4.9;46.3
72919;SHT30;61063;55.700;26.994;2023-03-01T11:06:58;4.9;48
72919;SHT30;61063;55.700;26.994;2023-03-01T11:11:30;5.3;48.4
72919;SHT30;61063;55.700;26.994;2023-03-01T11:17:11;5.7;47.7
72919;SHT30;61063;55.700;26.994;2023-03-01T11:21:46;5.8;47.2
72919;SHT30;61063;55.700;26.994;2023-03-01T11:26:38;5.6;46.5
72919;SHT30;61063;55.700;26.994;2023-03-01T11:31:56;5.3;46.6
72919;SHT30;61063;55.700;26.994;2023-03-01T11:36:29;5.5;46.5
72919;SHT30;61063;55.700;26.994;2023-03-01T11:42:06;5;47.2
72919;SHT30;61063;55.700;26.994;2023-03-01T11:47:05;4.5;48.7
72919;SHT30;61063;55.700;26.994;2023-03-01T11:51:31;4.6;49.3
72919;SHT30;61063;55.700;26.994;2023-03-01T11:56:32;5.4;49
72919;SHT30;61063;55.700;26.994;2023-03-01T12:01:22;6;49
72919;SHT30;61063;55.700;26.994;2023-03-01T12:07:01;5.3;49.6
72919;SHT30;61063;55.700;26.994;2023-03-01T12:11:57;4.6;51.2
72919;SHT30;61063;55.700;26.994;2023-03-01T12:16:53;4.8;52.8
72919;SHT30;61063;55.700;26.994;2023-03-01T12:21:45;5.4;52.4
72919;SHT30;61063;55.700;26.994;2023-03-01T12:26:29;5.8;51.9
72919;SHT30;61063;55.700;26.994;2023-03-01T12:32:07;5.8;51.7
72919;SHT30;61063;55.700;26.994;2023-03-01T12:36:57;6;50.5
72919;SHT30;61063;55.700;26.994;2023-03-01T12:41:36;5.8;50.6
72919;SHT30;61063;55.700;26.994;2023-03-01T12:46:54;5.9;51.6
72919;SHT30;61063;55.700;26.994;2023-03-01T12:51:26;6;51
72919;SHT30;61063;55.700;26.994;2023-03-01T12:57:06;5.5;51.5
72919;SHT30;61063;55.700;26.994;2023-03-01T13:01:56;5.5;52.4
72919;SHT30;61063;55.700;26.994;2023-03-01T13:06:40;5.3;53.2
72919;SHT30;61063;55.700;26.994;2023-03-01T13:11:56;5.2;54
72919;SHT30;61063;55.700;26.994;2023-03-01T13:16:45;5.4;53.6
72919;SHT30;61063;55.700;26.994;2023-03-01T13:21:52;5.1;54.5
72919;SHT30;61063;55.700;26.994;2023-03-01T13:26:29;4.8;55.7
72919;SHT30;61063;55.700;26.994;2023-03-01T13:48:39;4.3;58.7
72919;SHT30;61063;55.700;26.994;2023-03-01T14:09:00;4.5;59.2
72919;SHT30;61063;55.700;26.994;2023-03-01T14:14:38;4.4;59.4
72919;SHT30;61063;55.700;26.994;2023-03-01T14:19:17;4.1;60.2
72919;SHT30;61063;55.700;26.994;2023-03-01T14:23:44;4.1;60.6
72919;SHT30;61063;55.700;26.994;2023-03-01T14:28:28;4.2;60.6
72919;SHT30;61063;55.700;26.994;2023-03-01T14:34:18;4.2;60.5
72919;SHT30;61063;55.700;26.994;2023-03-01T14:39:15;4.2;60.5
72919;SHT30;61063;55.700;26.994;2023-03-01T14:43:28;4;60.2
72919;SHT30;61063;55.700;26.994;2023-03-01T14:49:17;4;60.7
72919;SHT30;61063;55.700;26.994;2023-03-01T14:53:28;4;61.2
72919;SHT30;61063;55.700;26.994;2023-03-01T14:59:18;3.9;61.4
72919;SHT30;61063;55.700;26.994;2023-03-01T15:04:04;3.8;61.7
72919;SHT30;61063;55.700;26.994;2023-03-01T15:08:28;3.6;62
72919;SHT30;61063;55.700;26.994;2023-03-01T15:14:47;3.5;62.4
72919;SHT30;61063;55.700;26.994;2023-03-01T15:18:52;3.4;62.6
72919;SHT30;61063;55.700;26.994;2023-03-01T15:24:17;3.3;63.1
72919;SHT30;61063;55.700;26.994;2023-03-01T15:29:10;3;64.1
72919;SHT30;61063;55.700;26.994;2023-03-01T15:33:40;2.8;64.9
72919;SHT30;61063;55.700;26.994;2023-03-01T15:39:26;2.7;65.6
72919;SHT30;61063;55.700;26.994;2023-03-01T15:43:41;2.5;66.4
72919;SHT30;61063;55.700;26.994;2023-03-01T15:49:21;2.4;67.1
72919;SHT30;61063;55.700;26.994;2023-03-01T15:53:30;2.3;67.6
72919;SHT30;61063;55.700;26.994;2023-03-01T15:58:46;2.2;68
72919;SHT30;61063;55.700;26.994;2023-03-01T16:04:15;2.1;68.4
72919;SHT30;61063;55.700;26.994;2023-03-01T16:08:52;2.1;68.9
72919;SHT30;61063;55.700;26.994;2023-03-01T16:14:16;2;69.3
72919;SHT30;61063;55.700;26.994;2023-03-01T16:19:06;1.9;69.6
72919;SHT30;61063;55.700;26.994;2023-03-01T16:23:28;1.8;69.9
72919;SHT30;61063;55.700;26.994;2023-03-01T16:29:16;1.7;70.2
72919;SHT30;61063;55.700;26.994;2023-03-01T16:33:40;1.7;70.5
72919;SHT30;61063;55.700;26.994;2023-03-01T16:39:16;1.6;70.7
72919;SHT30;61063;55.700;26.994;2023-03-01T16:44:04;1.6;70.8
72919;SHT30;61063;55.700;26.994;2023-03-01T16:48:28;1.5;71
72919;SHT30;61063;55.700;26.994;2023-03-01T16:54:16;1.4;71.3
72919;SHT30;61063;55.700;26.994;2023-03-01T16:58:50;1.4;71.4
72919;SHT30;61063;55.700;26.994;2023-03-01T17:04:16;1.4;71.4
72919;SHT30;61063;55.700;26.994;2023-03-01T17:08:52;1.3;71.5
72919;SHT30;61063;55.700;26.994;2023-03-01T17:13:40;1.3;71.6
72919;SHT30;61063;55.700;26.994;2023-03-01T17:19:16;1.2;71.7
72919;SHT30;61063;55.700;26.994;2023-03-01T17:23:54;1.2;71.7
72919;SHT30;61063;55.700;26.994;2023-03-01T17:29:18;1.2;71.6
72919;SHT30;61063;55.700;26.994;2023-03-01T17:34:04;1.2;71.5
72919;SHT30;61063;55.700;26.994;2023-03-01T17:38:28;1.3;71.4
72919;SHT30;61063;55.700;26.994;2023-03-01T17:44:14;1.2;71.4
72919;SHT30;61063;55.700;26.994;2023-03-01T17:48:54;1.1;71.5
72919;SHT30;61063;55.700;26.994;2023-03-01T17:53:28;1.1;71.5
72919;SHT30;61063;55.700;26.994;2023-03-01T17:59:18;1;71.5
72919;SHT30;61063;55.700;26.994;2023-03-01T18:03:28;1;71.6
72919;SHT30;61063;55.700;26.994;2023-03-01T18:09:16;1;71.5
72919;SHT30;61063;55.700;26.994;2023-03-01T18:14:16;1;71.5
72919;SHT30;61063;55.700;26.994;2023-03-01T18:19:04;1.1;71.5
72919;SHT30;61063;55.700;26.994;2023-03-01T18:24:16;1.1;71.5
72919;SHT30;61063;55.700;26.994;2023-03-01T18:28:28;1.1;71.5
72919;SHT30;61063;55.700;26.994;2023-03-01T18:34:18;1.2;71.4
72919;SHT30;61063;55.700;26.994;2023-03-01T18:38:54;1.2;71.3
72919;SHT30;61063;55.700;26.994;2023-03-01T18:43:30;1.3;71.3
72919;SHT30;61063;55.700;26.994;2023-03-01T18:49:18;1.3;71.3
72919;SHT30;61063;55.700;26.994;2023-03-01T18:53:28;1.4;71.2
72919;SHT30;61063;55.700;26.994;2023-03-01T18:59:18;1.5;71.1
72919;SHT30;61063;55.700;26.994;2023-03-01T19:03:28;1.5;71.1
72919;SHT30;61063;55.700;26.994;2023-03-01T19:09:02;1.6;71.1
72919;SHT30;61063;55.700;26.994;2023-03-01T19:14:08;1.7;71
72919;SHT30;61063;55.700;26.994;2023-03-01T19:18:36;1.7;71
72919;SHT30;61063;55.700;26.994;2023-03-01T19:24:18;1.8;70.8
72919;SHT30;61063;55.700;26.994;2023-03-01T19:28:53;1.9;70.6
72919;SHT30;61063;55.700;26.994;2023-03-01T19:34:02;1.9;70.5
72919;SHT30;61063;55.700;26.994;2023-03-01T19:39:14;2;70.2
72919;SHT30;61063;55.700;26.994;2023-03-01T19:43:40;2.1;70.2
72919;SHT30;61063;55.700;26.994;2023-03-01T19:49:14;2.1;70.1
72919;SHT30;61063;55.700;26.994;2023-03-01T19:53:28;2.2;70
72919;SHT30;61063;55.700;26.994;2023-03-01T19:59:02;2.2;69.9
72919;SHT30;61063;55.700;26.994;2023-03-01T20:04:14;2.3;69.9
72919;SHT30;61063;55.700;26.994;2023-03-01T20:08:38;2.3;70
72919;SHT30;61063;55.700;26.994;2023-03-01T20:14:16;2.4;69.9
72919;SHT30;61063;55.700;26.994;2023-03-01T20:18:52;2.4;69.8
72919;SHT30;61063;55.700;26.994;2023-03-01T20:24:02;2.5;69.8
72919;SHT30;61063;55.700;26.994;2023-03-01T20:29:18;2.5;69.7
72919;SHT30;61063;55.700;26.994;2023-03-01T20:33:28;2.6;69.7
72919;SHT30;61063;55.700;26.994;2023-03-01T20:39:06;2.6;69.6
72919;SHT30;61063;55.700;26.994;2023-03-01T20:43:52;2.6;69.6
72919;SHT30;61063;55.700;26.994;2023-03-01T20:49:02;2.7;69.5
72919;SHT30;61063;55.700;26.994;2023-03-01T20:54:16;2.7;69.5
72919;SHT30;61063;55.700;26.994;2023-03-01T20:58:36;2.7;69.5
72919;SHT30;61063;55.700;26.994;2023-03-01T21:03:28;2.7;69.5
72919;SHT30;61063;55.700;26.994;2023-03-01T21:09:00;2.7;69.4
72919;SHT30;61063;55.700;26.994;2023-03-01T21:14:16;2.6;69.4
72919;SHT30;61063;55.700;26.994;2023-03-01T21:19:18;2.6;69.6
72919;SHT30;61063;55.700;26.994;2023-03-01T21:23:42;2.5;69.8
72919;SHT30;61063;55.700;26.994;2023-03-01T21:28:54;2.4;69.9
72919;SHT30;61063;55.700;26.994;2023-03-01T21:34:03;2.3;70.2
72919;SHT30;61063;55.700;26.994;2023-03-01T21:39:14;2.1;70.6
72919;SHT30;61063;55.700;26.994;2023-03-01T21:44:02;2;70.8
72919;SHT30;61063;55.700;26.994;2023-03-01T21:48:54;1.9;71.2
72919;SHT30;61063;55.700;26.994;2023-03-01T21:53:29;1.8;71.5
72919;SHT30;61063;55.700;26.994;2023-03-01T21:59:02;1.8;71.7
72919;SHT30;61063;55.700;26.994;2023-03-01T22:04:04;1.7;72
72919;SHT30;61063;55.700;26.994;2023-03-01T22:09:00;1.7;72.3
72919;SHT30;61063;55.700;26.994;2023-03-01T22:13:28;1.6;72.6
72919;SHT30;61063;55.700;26.994;2023-03-01T22:18:52;1.6;72.9
72919;SHT30;61063;55.700;26.994;2023-03-01T22:23:42;1.6;73.1
72919;SHT30;61063;55.700;26.994;2023-03-01T22:29:17;1.6;73.3
72919;SHT30;61063;55.700;26.994;2023-03-01T22:33:54;1.6;73.4
72919;SHT30;61063;55.700;26.994;2023-03-01T22:38:40;1.6;73.6
72919;SHT30;61063;55.700;26.994;2023-03-01T22:43:50;1.6;73.8
72919;SHT30;61063;55.700;26.994;2023-03-01T22:49:00;1.6;74
72919;SHT30;61063;55.700;26.994;2023-03-01T22:54:16;1.6;74
72919;SHT30;61063;55.700;26.994;2023-03-01T22:59:00;1.6;74.2
72919;SHT30;61063;55.700;26.994;2023-03-01T23:03:28;1.6;74.3
72919;SHT30;61063;55.700;26.994;2023-03-01T23:08:52;1.6;74.6
72919;SHT30;61063;55.700;26.994;2023-03-01T23:14:02;1.6;74.8
72919;SHT30;61063;55.700;26.994;2023-03-01T23:19:16;1.6;74.9
72919;SHT30;61063;55.700;26.994;2023-03-01T23:24:02;1.6;75
72919;SHT30;61063;55.700;26.994;2023-03-01T23:28:40;1.6;75.1
72919;SHT30;61063;55.700;26.994;2023-03-01T23:33:54;1.6;75.1
72919;SHT30;61063;55.700;26.994;2023-03-01T23:39:03;1.6;75.4
72919;SHT30;61063;55.700;26.994;2023-03-01T23:44:17;1.5;75.5
72919;SHT30;61063;55.700;26.994;2023-03-01T23:49:00;1.5;75.8
72919;SHT30;61063;55.700;26.994;2023-03-01T23:53:40;1.5;76.1
72919;SHT30;61063;55.700;26.994;2023-03-01T23:58:52;1.5;76.5
